createdAt,value
2022-11-19T00:01:27.995Z,7.00
2022-11-19T00:03:55.388Z,6.90
2022-11-19T00:06:27.572Z,6.90
2022-11-19T00:08:55.517Z,6.90
2022-11-19T00:11:44.165Z,6.90
2022-11-19T00:14:13.420Z,6.80
2022-11-19T00:16:41.456Z,6.80
2022-11-19T00:19:10.372Z,6.80
2022-11-19T00:21:37.525Z,6.70
2022-11-19T00:24:05.116Z,6.70
2022-11-19T00:26:32.155Z,6.70
2022-11-19T00:28:59.227Z,6.70
2022-11-19T00:31:26.225Z,6.80
2022-11-19T00:33:54.678Z,6.80
2022-11-19T00:36:23.165Z,6.70
2022-11-19T00:38:50.390Z,6.80
2022-11-19T00:41:17.530Z,6.70
2022-11-19T00:43:47.501Z,6.70
2022-11-19T00:46:15.768Z,6.80
2022-11-19T00:48:43.413Z,6.70
2022-11-19T00:51:11.586Z,6.70
2022-11-19T00:53:44.363Z,6.80
2022-11-19T00:56:15.554Z,6.80
2022-11-19T00:58:43.719Z,6.90
2022-11-19T01:01:11.583Z,6.80
2022-11-19T01:03:41.201Z,6.90
2022-11-19T01:06:14.248Z,6.90
2022-11-19T01:08:45.802Z,6.90
2022-11-19T01:11:16.206Z,6.80
2022-11-19T01:13:43.328Z,6.80
2022-11-19T01:16:13.988Z,6.90
2022-11-19T01:18:42.380Z,6.90
2022-11-19T01:21:11.731Z,6.90
2022-11-19T01:23:40.075Z,6.90
2022-11-19T01:26:07.986Z,6.90
2022-11-19T01:28:35.254Z,6.90
2022-11-19T01:31:11.179Z,6.90
2022-11-19T01:33:38.780Z,6.80
2022-11-19T01:36:08.687Z,6.90
2022-11-19T01:38:35.630Z,6.90
2022-11-19T01:41:02.649Z,6.90
2022-11-19T01:43:49.589Z,6.90
2022-11-19T01:46:21.757Z,6.90
2022-11-19T01:49:04.173Z,6.90
2022-11-19T01:51:36.668Z,6.90
2022-11-19T01:54:26.416Z,7.00
2022-11-19T01:56:55.901Z,6.90
2022-11-19T01:59:23.682Z,6.90
2022-11-19T02:01:51.354Z,6.90
2022-11-19T02:04:20.584Z,6.90
2022-11-19T02:06:48.279Z,6.90
2022-11-19T02:09:15.417Z,6.90
2022-11-19T02:12:01.116Z,6.90
2022-11-19T02:14:56.435Z,6.80
2022-11-19T02:17:32.206Z,6.80
2022-11-19T02:20:17.277Z,6.90
2022-11-19T02:23:03.045Z,6.90
2022-11-19T02:25:39.418Z,6.80
2022-11-19T02:28:37.194Z,6.80
2022-11-19T02:31:15.158Z,6.80
2022-11-19T02:33:57.875Z,6.80
2022-11-19T02:36:47.403Z,6.80
2022-11-19T02:39:31.062Z,6.80
2022-11-19T02:42:13.488Z,6.80
2022-11-19T02:45:06.753Z,6.80
2022-11-19T02:47:56.837Z,6.80
2022-11-19T02:50:55.930Z,6.90
2022-11-19T02:53:23.881Z,6.80
2022-11-19T02:56:09.371Z,6.80
2022-11-19T02:59:00.445Z,6.80
2022-11-19T03:01:48.980Z,6.70
2022-11-19T03:04:31.062Z,6.70
2022-11-19T03:07:08.555Z,6.70
2022-11-19T03:09:40.523Z,6.70
2022-11-19T03:12:36.795Z,6.70
2022-11-19T03:15:48.722Z,6.60
2022-11-19T03:18:37.267Z,6.60
2022-11-19T03:21:15.239Z,6.60
2022-11-19T03:24:06.988Z,6.50
2022-11-19T03:26:36.896Z,6.50
2022-11-19T03:29:10.478Z,6.50
2022-11-19T03:31:40.855Z,6.50
2022-11-19T03:34:16.782Z,6.50
2022-11-19T03:36:46.138Z,6.40
2022-11-19T03:39:18.658Z,6.40
2022-11-19T03:41:49.800Z,6.50
2022-11-19T03:44:38.790Z,6.50
2022-11-19T03:47:12.073Z,6.40
2022-11-19T03:49:43.198Z,6.40
2022-11-19T03:52:19.690Z,6.40
2022-11-19T03:54:46.723Z,6.40
2022-11-19T03:57:17.383Z,6.40
2022-11-19T03:59:45.065Z,6.30
2022-11-19T04:02:13.854Z,6.30
2022-11-19T04:04:40.945Z,6.40
2022-11-19T04:07:14.596Z,6.40
2022-11-19T04:09:42.540Z,6.20
2022-11-19T04:12:16.767Z,6.20
2022-11-19T04:14:43.942Z,6.20
2022-11-19T04:17:11.211Z,6.20
2022-11-19T04:19:38.183Z,6.20
2022-11-19T04:22:05.219Z,6.20
2022-11-19T04:24:32.250Z,6.20
2022-11-19T04:26:59.245Z,6.30
2022-11-19T04:29:26.181Z,6.30
2022-11-19T04:31:53.188Z,6.30
2022-11-19T04:34:20.213Z,6.30
2022-11-19T04:36:47.215Z,6.30
2022-11-19T04:39:14.143Z,6.30
2022-11-19T04:41:41.493Z,6.30
2022-11-19T04:44:08.455Z,6.30
2022-11-19T04:46:35.413Z,6.30
2022-11-19T04:49:02.371Z,6.30
2022-11-19T04:51:29.342Z,6.30
2022-11-19T04:53:56.359Z,6.20
2022-11-19T04:56:23.337Z,6.30
2022-11-19T04:58:50.317Z,6.20
2022-11-19T05:01:17.329Z,6.20
2022-11-19T05:03:44.280Z,6.30
2022-11-19T05:06:11.320Z,6.20
2022-11-19T05:08:38.225Z,6.20
2022-11-19T05:11:05.395Z,6.20
2022-11-19T05:13:32.377Z,6.10
2022-11-19T05:15:59.327Z,6.20
2022-11-19T05:18:26.262Z,6.20
2022-11-19T05:20:53.305Z,6.10
2022-11-19T05:23:20.631Z,6.20
2022-11-19T05:25:47.760Z,6.10
2022-11-19T05:28:14.761Z,6.10
2022-11-19T05:30:41.751Z,6.00
2022-11-19T05:33:08.954Z,6.00
2022-11-19T05:35:36.374Z,6.10
2022-11-19T05:38:03.461Z,6.00
2022-11-19T05:40:30.391Z,6.00
2022-11-19T05:42:57.316Z,5.90
2022-11-19T05:45:24.330Z,5.90
2022-11-19T05:47:55.019Z,5.90
2022-11-19T05:50:22.267Z,5.90
2022-11-19T05:52:50.630Z,5.90
2022-11-19T05:55:17.596Z,5.90
2022-11-19T05:57:44.544Z,5.90
2022-11-19T06:00:12.182Z,5.90
2022-11-19T06:02:41.821Z,6.00
2022-11-19T06:05:09.459Z,5.90
2022-11-19T06:07:36.439Z,5.90
2022-11-19T06:10:03.608Z,5.90
2022-11-19T06:12:30.558Z,6.00
2022-11-19T06:14:57.591Z,5.90
2022-11-19T06:17:24.498Z,6.00
2022-11-19T06:19:51.773Z,6.00
2022-11-19T06:22:18.738Z,6.00
2022-11-19T06:24:45.716Z,6.00
2022-11-19T06:27:12.693Z,6.00
2022-11-19T06:29:39.625Z,6.00
2022-11-19T06:32:06.562Z,6.00
2022-11-19T06:34:33.580Z,6.00
2022-11-19T06:37:00.534Z,6.00
2022-11-19T06:39:27.467Z,6.00
2022-11-19T06:41:54.466Z,6.00
2022-11-19T06:44:21.420Z,6.00
2022-11-19T06:46:48.380Z,6.10
2022-11-19T06:49:19.905Z,6.10
2022-11-19T06:51:47.212Z,6.00
2022-11-19T06:54:14.242Z,6.00
2022-11-19T06:56:41.249Z,6.00
2022-11-19T06:59:08.170Z,6.10
2022-11-19T07:01:35.198Z,6.00
2022-11-19T07:04:02.160Z,6.00
2022-11-19T07:06:29.086Z,6.00
2022-11-19T07:08:56.034Z,6.10
2022-11-19T07:11:28.751Z,6.20
2022-11-19T07:13:57.685Z,6.20
2022-11-19T07:16:26.544Z,6.20
2022-11-19T07:18:53.484Z,6.30
2022-11-19T07:21:20.556Z,6.10
2022-11-19T07:23:47.491Z,6.20
2022-11-19T07:26:14.903Z,6.20
2022-11-19T07:28:42.553Z,6.00
2022-11-19T07:31:09.721Z,6.10
2022-11-19T07:33:39.216Z,6.10
2022-11-19T07:36:09.317Z,6.10
2022-11-19T07:38:39.162Z,6.10
2022-11-19T07:41:26.824Z,6.20
2022-11-19T07:43:54.142Z,6.20
2022-11-19T07:46:21.168Z,6.20
2022-11-19T07:48:48.139Z,5.90
2022-11-19T07:51:15.085Z,5.90
2022-11-19T07:53:42.881Z,5.80
2022-11-19T07:56:09.893Z,5.80
2022-11-19T07:58:36.873Z,5.60
2022-11-19T08:01:11.898Z,5.50
2022-11-19T08:03:39.029Z,5.40
2022-11-19T08:06:06.849Z,5.40
2022-11-19T08:08:34.020Z,5.20
2022-11-19T08:11:09.107Z,5.20
2022-11-19T08:13:36.892Z,5.30
2022-11-19T08:16:05.595Z,5.20
2022-11-19T08:18:32.727Z,5.00
2022-11-19T08:21:09.172Z,4.90
2022-11-19T08:23:37.251Z,5.10
2022-11-19T08:26:06.889Z,5.10
2022-11-19T08:28:33.919Z,5.00
2022-11-19T08:31:08.533Z,4.80
2022-11-19T08:33:36.297Z,4.90
2022-11-19T08:36:03.880Z,4.90
2022-11-19T08:38:34.599Z,4.80
2022-11-19T08:41:23.926Z,4.60
2022-11-19T08:43:50.893Z,4.50
2022-11-19T08:46:17.861Z,4.60
2022-11-19T08:48:44.864Z,4.60
2022-11-19T08:51:14.781Z,4.60
2022-11-19T08:53:42.038Z,4.60
2022-11-19T08:56:17.885Z,4.40
2022-11-19T08:58:45.346Z,4.50
2022-11-19T09:01:15.096Z,4.30
2022-11-19T09:03:42.308Z,4.40
2022-11-19T09:06:09.658Z,4.20
2022-11-19T09:08:36.658Z,4.20
2022-11-19T09:11:08.875Z,4.00
2022-11-19T09:13:36.365Z,4.00
2022-11-19T09:16:03.800Z,3.80
2022-11-19T09:18:32.649Z,3.70
2022-11-19T09:20:59.980Z,3.70
2022-11-19T09:23:27.602Z,3.70
2022-11-19T09:25:59.293Z,3.90
2022-11-19T09:28:27.627Z,4.00
2022-11-19T09:30:59.115Z,3.90
2022-11-19T09:33:26.470Z,3.80
2022-11-19T09:35:53.565Z,3.80
2022-11-19T09:38:20.918Z,3.70
2022-11-19T09:40:52.773Z,3.70
2022-11-19T09:43:41.422Z,3.60
2022-11-19T09:46:24.446Z,3.60
2022-11-19T09:48:55.760Z,3.70
2022-11-19T09:51:29.955Z,3.70
2022-11-19T09:54:05.814Z,3.70
2022-11-19T09:56:39.026Z,3.70
2022-11-19T09:59:25.123Z,3.80
2022-11-19T10:01:53.239Z,3.70
2022-11-19T10:04:26.767Z,3.60
2022-11-19T10:07:30.417Z,3.60
2022-11-19T10:10:20.992Z,3.60
2022-11-19T10:12:50.818Z,3.40
2022-11-19T10:15:27.043Z,3.40
2022-11-19T10:17:58.060Z,3.40
2022-11-19T10:20:55.101Z,3.40
2022-11-19T10:23:40.814Z,3.50
2022-11-19T10:26:13.318Z,3.40
2022-11-19T10:28:43.820Z,3.30
2022-11-19T10:31:36.984Z,3.30
2022-11-19T10:34:15.436Z,3.30
2022-11-19T10:37:07.573Z,3.30
2022-11-19T10:39:51.748Z,3.40
2022-11-19T10:42:30.232Z,3.40
2022-11-19T10:45:03.191Z,3.40
2022-11-19T10:48:09.556Z,3.40
2022-11-19T10:50:37.009Z,3.30
2022-11-19T10:53:29.280Z,3.30
2022-11-19T10:56:06.515Z,3.40
2022-11-19T10:58:42.775Z,3.40
2022-11-19T11:01:34.937Z,3.30
2022-11-19T11:04:13.204Z,3.40
2022-11-19T11:07:01.327Z,3.40
2022-11-19T11:09:34.364Z,3.40
2022-11-19T11:12:35.171Z,3.40
2022-11-19T11:15:18.994Z,3.40
2022-11-19T11:17:49.559Z,3.40
2022-11-19T11:20:17.137Z,3.40
2022-11-19T11:22:49.904Z,3.40
2022-11-19T11:25:26.257Z,3.40
2022-11-19T11:28:06.866Z,3.40
2022-11-19T11:30:34.757Z,3.40
2022-11-19T11:33:40.068Z,3.30
2022-11-19T11:36:16.332Z,3.40
2022-11-19T11:38:46.144Z,3.50
2022-11-19T11:44:05.855Z,3.40
2022-11-19T11:46:57.232Z,3.40
2022-11-19T11:49:28.693Z,3.50
2022-11-19T11:51:58.253Z,3.60
2022-11-19T11:54:25.186Z,3.60
2022-11-19T11:56:52.132Z,3.70
2022-11-19T11:59:29.912Z,3.70
2022-11-19T12:02:02.172Z,3.80
2022-11-19T12:04:29.712Z,3.80
2022-11-19T12:07:12.063Z,3.80
2022-11-19T12:09:48.511Z,3.70
2022-11-19T12:12:26.290Z,3.70
2022-11-19T12:15:43.229Z,3.70
2022-11-19T12:18:32.302Z,3.70
2022-11-19T12:21:06.338Z,3.80
2022-11-19T12:24:04.130Z,3.90
2022-11-19T12:26:45.862Z,3.80
2022-11-19T12:29:58.022Z,3.60
2022-11-19T12:32:42.019Z,3.70
2022-11-19T12:35:33.613Z,3.80
2022-11-19T12:38:12.717Z,3.70
2022-11-19T12:40:46.117Z,3.80
2022-11-19T12:43:45.042Z,3.90
2022-11-19T12:46:46.912Z,3.90
2022-11-19T12:49:32.206Z,3.90
2022-11-19T12:52:11.088Z,3.90
2022-11-19T12:55:27.817Z,3.80
2022-11-19T12:58:12.464Z,3.80
2022-11-19T13:00:45.561Z,3.90
2022-11-19T13:03:25.055Z,4.00
2022-11-19T13:06:02.736Z,3.90
2022-11-19T13:08:43.695Z,3.90
2022-11-19T13:11:22.783Z,4.00
2022-11-19T13:13:58.678Z,4.00
2022-11-19T13:16:28.678Z,4.10
2022-11-19T13:19:23.276Z,4.10
2022-11-19T13:21:58.790Z,4.10
2022-11-19T13:24:35.284Z,4.00
2022-11-19T13:27:05.339Z,4.00
2022-11-19T13:30:02.767Z,3.90
2022-11-19T13:32:42.573Z,4.00
2022-11-19T13:35:16.870Z,4.00
2022-11-19T13:38:08.598Z,4.00
2022-11-19T13:40:35.461Z,4.10
2022-11-19T13:43:37.232Z,4.00
2022-11-19T13:46:13.157Z,3.90
2022-11-19T13:49:02.602Z,3.90
2022-11-19T13:51:33.771Z,3.90
2022-11-19T13:54:03.771Z,4.00
2022-11-19T13:56:43.856Z,4.10
2022-11-19T13:59:36.984Z,4.10
2022-11-19T14:02:18.748Z,4.10
2022-11-19T14:05:15.747Z,4.20
2022-11-19T14:07:51.576Z,4.10
2022-11-19T14:10:32.866Z,4.10
2022-11-19T14:13:08.836Z,4.10
2022-11-19T14:16:21.677Z,4.00
2022-11-19T14:19:30.067Z,4.10
2022-11-19T14:22:17.102Z,4.10
2022-11-19T14:25:02.620Z,4.20
2022-11-19T14:27:29.508Z,4.20
2022-11-19T14:30:07.113Z,4.20
2022-11-19T14:32:46.431Z,4.20
2022-11-19T14:35:23.051Z,4.20
2022-11-19T14:37:54.034Z,4.20
2022-11-19T14:40:21.385Z,4.20
2022-11-19T14:43:19.133Z,4.20
2022-11-19T14:46:09.221Z,4.20
2022-11-19T14:48:51.904Z,4.20
2022-11-19T14:51:28.350Z,4.20
2022-11-19T14:54:08.159Z,4.10
2022-11-19T14:56:38.043Z,4.00
2022-11-19T14:59:22.084Z,4.00
2022-11-19T15:02:03.705Z,4.00
2022-11-19T15:04:42.164Z,4.10
2022-11-19T15:07:12.512Z,4.20
2022-11-19T15:10:10.477Z,4.20
2022-11-19T15:12:43.418Z,4.20
2022-11-19T15:15:19.580Z,4.10
2022-11-19T15:18:02.503Z,4.20
2022-11-19T15:20:47.931Z,4.10
2022-11-19T15:23:24.292Z,4.10
2022-11-19T15:25:57.372Z,4.10
2022-11-19T15:28:24.770Z,4.20
2022-11-19T15:31:09.254Z,4.20
2022-11-19T15:33:39.773Z,4.10
2022-11-19T15:36:58.032Z,4.00
2022-11-19T15:39:39.510Z,3.80
2022-11-19T15:42:15.441Z,3.70
2022-11-19T15:44:46.470Z,3.60
2022-11-19T15:47:25.702Z,3.70
2022-11-19T15:49:53.801Z,3.70
2022-11-19T15:52:27.791Z,3.60
2022-11-19T15:55:19.866Z,3.70
2022-11-19T15:57:50.218Z,3.60
2022-11-19T16:00:22.811Z,3.60
2022-11-19T16:02:51.570Z,3.60
2022-11-19T16:05:21.828Z,3.70
2022-11-19T16:07:49.895Z,3.60
2022-11-19T16:10:31.017Z,3.70
2022-11-19T16:13:37.264Z,3.70
2022-11-19T16:16:23.565Z,3.70
2022-11-19T16:18:52.439Z,3.70
2022-11-19T16:21:29.760Z,3.70
2022-11-19T16:24:15.944Z,3.80
2022-11-19T16:26:44.382Z,3.70
2022-11-19T16:29:22.147Z,3.80
2022-11-19T16:31:56.861Z,3.70
2022-11-19T16:34:30.180Z,3.70
2022-11-19T16:36:57.592Z,3.60
2022-11-19T16:39:27.647Z,3.60
2022-11-19T16:42:18.774Z,3.70
2022-11-19T16:44:50.576Z,3.70
2022-11-19T16:47:29.831Z,3.70
2022-11-19T16:50:08.084Z,3.60
2022-11-19T16:52:40.616Z,3.50
2022-11-19T16:55:28.951Z,3.60
2022-11-19T16:58:00.533Z,3.50
2022-11-19T17:00:36.246Z,3.50
2022-11-19T17:03:21.839Z,3.40
2022-11-19T17:05:52.107Z,3.40
2022-11-19T17:08:30.117Z,3.50
2022-11-19T17:11:36.783Z,3.50
2022-11-19T17:14:20.091Z,3.60
2022-11-19T17:16:53.043Z,3.60
2022-11-19T17:19:31.873Z,3.70
2022-11-19T17:22:04.015Z,3.70
2022-11-19T17:24:34.697Z,3.70
2022-11-19T17:27:02.312Z,3.80
2022-11-19T17:29:29.604Z,3.80
2022-11-19T17:31:57.054Z,3.80
2022-11-19T17:34:30.695Z,3.80
2022-11-19T17:36:58.312Z,3.80
2022-11-19T17:39:27.013Z,3.70
2022-11-19T17:42:13.969Z,3.50
2022-11-19T17:44:42.219Z,3.60
2022-11-19T17:47:22.888Z,3.60
2022-11-19T17:49:51.844Z,3.70
2022-11-19T17:52:21.613Z,3.60
2022-11-19T17:54:51.387Z,3.70
2022-11-19T17:57:18.557Z,3.60
2022-11-19T17:59:45.981Z,3.60
2022-11-19T18:02:15.750Z,3.70
2022-11-19T18:04:44.458Z,3.70
2022-11-19T18:07:15.199Z,3.80
2022-11-19T18:09:43.235Z,3.80
2022-11-19T18:12:17.133Z,3.80
2022-11-19T18:14:46.459Z,3.80
2022-11-19T18:17:16.159Z,3.80
2022-11-19T18:19:43.666Z,3.80
2022-11-19T18:22:18.486Z,3.80
2022-11-19T18:24:50.317Z,3.80
2022-11-19T18:27:18.252Z,3.80
2022-11-19T18:29:46.558Z,3.70
2022-11-19T18:32:16.902Z,3.70
2022-11-19T18:34:45.765Z,3.60
2022-11-19T18:37:13.532Z,3.60
2022-11-19T18:39:41.048Z,3.60
2022-11-19T18:42:12.281Z,3.60
2022-11-19T18:44:43.831Z,3.50
2022-11-19T18:47:14.041Z,3.50
2022-11-19T18:49:42.844Z,3.50
2022-11-19T18:52:16.399Z,3.60
2022-11-19T18:54:44.364Z,3.60
2022-11-19T18:57:13.283Z,3.60
2022-11-19T18:59:41.797Z,3.60
2022-11-19T19:02:10.913Z,3.50
2022-11-19T19:04:38.686Z,3.60
2022-11-19T19:07:06.632Z,3.50
2022-11-19T19:09:34.318Z,3.60
2022-11-19T19:12:20.945Z,3.60
2022-11-19T19:14:51.786Z,3.60
2022-11-19T19:17:20.062Z,3.60
2022-11-19T19:19:47.910Z,3.60
2022-11-19T19:22:15.922Z,3.60
2022-11-19T19:24:43.332Z,3.50
2022-11-19T19:27:11.249Z,3.50
2022-11-19T19:29:40.130Z,3.60
2022-11-19T19:32:09.746Z,3.50
2022-11-19T19:34:38.377Z,3.60
2022-11-19T19:37:07.679Z,3.50
2022-11-19T19:39:36.111Z,3.60
2022-11-19T19:42:03.338Z,3.60
2022-11-19T19:44:30.982Z,3.50
2022-11-19T19:46:59.373Z,3.50
2022-11-19T19:49:27.395Z,3.50
2022-11-19T19:52:51.570Z,3.60
2022-11-19T19:55:27.421Z,3.50
2022-11-19T19:57:57.805Z,3.50
2022-11-19T20:00:31.688Z,3.50
2022-11-19T20:03:04.057Z,3.60
2022-11-19T20:06:07.223Z,3.60
2022-11-19T20:09:21.017Z,3.60
2022-11-19T20:13:07.148Z,3.50
2022-11-19T20:16:05.520Z,3.60
2022-11-19T20:18:49.158Z,3.50
2022-11-19T20:22:24.129Z,3.50
2022-11-19T20:25:51.421Z,3.50
2022-11-19T20:29:42.709Z,3.50
2022-11-19T20:35:46.183Z,3.50
2022-11-19T20:38:50.642Z,3.60
2022-11-19T20:45:30.250Z,3.50
2022-11-19T20:52:11.211Z,3.40
2022-11-19T20:55:06.566Z,3.40
2022-11-19T20:58:09.690Z,3.50
2022-11-19T21:01:31.646Z,3.40
2022-11-19T21:04:40.533Z,3.30
2022-11-19T21:13:51.164Z,3.10
2022-11-19T21:16:38.123Z,3.20
2022-11-19T21:25:41.048Z,3.10
2022-11-19T21:28:42.568Z,3.10
2022-11-19T21:32:12.806Z,3.10
2022-11-19T21:34:41.883Z,3.00
2022-11-19T21:37:33.797Z,3.00
2022-11-19T21:40:40.789Z,3.00
2022-11-19T21:43:27.157Z,3.10
2022-11-19T21:46:43.834Z,3.10
2022-11-19T21:49:34.294Z,3.10
2022-11-19T21:52:13.260Z,3.10
2022-11-19T21:55:05.882Z,3.00
2022-11-19T21:58:05.530Z,3.00
2022-11-19T22:00:56.441Z,3.00
2022-11-19T22:03:58.693Z,3.00
2022-11-19T22:07:20.752Z,3.00
2022-11-19T22:10:01.670Z,3.00
2022-11-19T22:16:01.092Z,3.00
2022-11-19T22:18:48.927Z,3.00
2022-11-19T22:21:42.509Z,3.00
2022-11-19T22:27:23.003Z,3.00
2022-11-19T22:30:28.121Z,3.00
2022-11-19T22:33:12.846Z,3.10
2022-11-19T22:39:02.803Z,3.10
2022-11-19T22:42:10.665Z,3.10
2022-11-19T22:48:28.461Z,3.10
2022-11-19T22:51:39.439Z,3.10
2022-11-19T22:57:37.489Z,3.00
2022-11-19T23:00:21.229Z,3.00
2022-11-19T23:03:53.591Z,3.10
2022-11-19T23:06:31.247Z,3.10
2022-11-19T23:09:39.971Z,3.10
2022-11-19T23:13:20.660Z,3.10
2022-11-19T23:16:41.559Z,3.00
2022-11-19T23:19:42.224Z,3.00
2022-11-19T23:22:43.395Z,3.00
2022-11-19T23:25:34.139Z,3.00
2022-11-19T23:31:24.367Z,3.10
2022-11-19T23:34:30.014Z,3.10
2022-11-19T23:39:00.855Z,3.20
2022-11-19T23:41:42.717Z,3.20
2022-11-19T23:45:01.267Z,3.20
2022-11-19T23:47:47.420Z,3.20
2022-11-19T23:54:16.423Z,3.20
2022-11-19T23:57:04.778Z,3.30
2022-11-19T23:59:59.325Z,3.30
